Time;durP1;ratioP1;P1;durP2;ratioP2;P2;SDS_P1;SDS_P2;PMS_P1;PMS_P2;Temp;Humidity;BMP_temperature;BMP_pressure;BME280_temperature;BME280_humidity;BME280_pressure;Samples;Min_cycle;Max_cycle;Signal;HPM_P1;HPM_P2
2022/03/30 00:01:41;;;;;;;15.48;12.13;;;;;;;15.19;40.18;97998.31;5087191;28;20064;-68
2022/03/30 00:04:12;;;;;;;13.48;11.05;;;;;;;14.88;40.25;97952.34;5086942;28;20079;-67
2022/03/30 00:06:44;;;;;;;18.85;13.15;;;;;;;14.43;40.23;97887.16;5086923;28;20112;-67
2022/03/30 00:09:13;;;;;;;16.42;13.05;;;;;;;15.21;40.15;98007.00;5087103;28;20101;-67
2022/03/30 00:11:42;;;;;;;20.38;12.68;;;;;;;15.14;40.54;98006.75;5086369;28;20052;-68
2022/03/30 00:14:13;;;;;;;22.63;17.13;;;;;;;12.76;40.43;97612.66;5086856;28;20162;-68
2022/03/30 00:16:42;;;;;;;20.63;14.90;;;;;;;15.06;40.73;98007.47;5087148;28;20028;-68
2022/03/30 00:19:15;;;;;;;21.95;14.43;;;;;;;15.05;40.86;98011.13;5086710;28;20040;-67
2022/03/30 00:21:49;;;;;;;15.82;13.05;;;;;;;15.07;40.83;98011.81;5086825;28;20086;-67
2022/03/30 00:24:22;;;;;;;13.90;11.88;;;;;;;15.07;40.62;98008.31;5069492;28;20285;-67
2022/03/30 00:26:54;;;;;;;19.33;13.43;;;;;;;14.78;41.05;97962.22;5086527;28;20041;-68
2022/03/30 00:29:27;;;;;;;16.48;11.95;;;;;;;15.06;40.83;98011.97;5069456;28;20047;-68
2022/03/30 00:32:00;;;;;;;19.20;14.60;;;;;;;15.05;40.65;98019.13;5069043;28;20115;-68
2022/03/30 00:34:32;;;;;;;16.35;12.88;;;;;;;13.90;40.83;97838.06;5069058;28;20044;-69
2022/03/30 00:37:09;;;;;;;16.52;12.07;;;;;;;14.71;41.75;97992.13;5069045;28;20048;-68
2022/03/30 00:39:41;;;;;;;15.85;12.30;;;;;;;14.72;40.95;97982.31;5069088;28;20334;-68
2022/03/30 00:42:17;;;;;;;15.85;12.57;;;;;;;14.86;42.29;98021.84;5068791;28;20041;-68
2022/03/30 00:44:50;;;;;;;16.17;12.02;;;;;;;14.84;41.58;98020.31;5086135;28;20040;-69
2022/03/30 00:47:25;;;;;;;18.75;13.68;;;;;;;14.33;41.42;97936.97;5069361;28;20037;-68
2022/03/30 00:49:57;;;;;;;17.95;12.25;;;;;;;14.50;41.69;98001.22;5085982;28;20048;-68
2022/03/30 00:52:31;;;;;;;14.30;10.95;;;;;;;14.79;41.69;98018.06;5086047;28;20046;-68
2022/03/30 00:55:06;;;;;;;21.33;13.52;;;;;;;14.82;41.58;98015.13;5086108;28;20040;-68
2022/03/30 00:57:39;;;;;;;14.95;12.35;;;;;;;13.73;41.60;97851.09;5085903;28;20044;-69
2022/03/30 01:00:14;;;;;;;16.70;11.70;;;;;;;14.74;41.65;98007.00;5085826;28;20090;-68
2022/03/30 01:02:48;;;;;;;12.95;11.15;;;;;;;14.74;41.68;98013.19;5086056;28;20098;-69
2022/03/30 01:05:21;;;;;;;15.02;12.43;;;;;;;14.74;41.57;98007.00;5086165;28;20036;-69
2022/03/30 01:07:57;;;;;;;17.20;12.75;;;;;;;14.48;42.73;97958.72;5068365;28;20204;-68
2022/03/30 01:10:30;;;;;;;18.13;13.73;;;;;;;14.75;41.67;98008.69;5086020;28;20086;-69
2022/03/30 01:13:05;;;;;;;15.38;11.93;;;;;;;14.70;41.68;98000.28;5085957;28;20032;-69
2022/03/30 01:15:38;;;;;;;16.30;11.43;;;;;;;14.66;42.26;98001.53;5085862;28;20066;-69
2022/03/30 01:18:11;;;;;;;17.85;12.98;;;;;;;14.62;42.25;98000.16;5085875;28;20041;-69
2022/03/30 01:20:47;;;;;;;17.77;12.48;;;;;;;14.58;43.64;98002.22;5068149;28;20044;-68
2022/03/30 01:23:20;;;;;;;14.43;12.10;;;;;;;14.59;42.17;98000.41;5085719;28;20082;-69
2022/03/30 01:25:52;;;;;;;15.95;12.15;;;;;;;14.58;42.13;97994.22;5085561;28;20082;-69
2022/03/30 01:28:28;;;;;;;13.63;11.43;;;;;;;14.22;42.37;97942.47;5085810;28;20044;-68
2022/03/30 01:33:50;;;;;;;12.77;10.68;;;;;;;14.23;42.54;97943.31;5085744;28;20044;-69
2022/03/30 01:36:25;;;;;;;15.27;11.02;;;;;;;14.43;42.51;97990.28;5085506;28;20040;-69
2022/03/30 01:38:57;;;;;;;18.40;12.40;;;;;;;14.40;42.51;97988.75;5084756;28;20044;-69
2022/03/30 01:41:30;;;;;;;13.25;11.20;;;;;;;14.42;42.44;97985.94;5085285;28;20041;-68
2022/03/30 01:44:02;;;;;;;15.55;12.07;;;;;;;14.09;42.50;97933.91;5085397;28;20090;-68
2022/03/30 01:46:38;;;;;;;14.93;12.00;;;;;;;14.12;43.57;97944.28;5085610;28;20046;-68
2022/03/30 01:49:09;;;;;;;15.77;12.32;;;;;;;14.38;42.65;97980.03;5068318;28;20055;-69
2022/03/30 01:51:41;;;;;;;15.07;12.05;;;;;;;14.37;42.83;97974.84;5085415;28;20043;-68
2022/03/30 01:54:10;;;;;;;13.70;11.80;;;;;;;14.18;43.42;97970.38;5085592;28;20103;-69
2022/03/30 01:56:39;;;;;;;18.15;13.27;;;;;;;14.10;43.24;97973.75;5068184;28;20108;-69
2022/03/30 01:59:10;;;;;;;14.00;11.80;;;;;;;14.03;43.51;97977.09;5085690;28;20067;-69
2022/03/30 02:01:40;;;;;;;18.75;11.73;;;;;;;12.85;43.80;97797.91;5071945;28;20316;-68
2022/03/30 02:04:10;;;;;;;14.98;12.48;;;;;;;14.01;43.57;97973.75;5089057;28;20063;-68
2022/03/30 02:06:42;;;;;;;17.08;12.48;;;;;;;13.94;43.88;97967.28;5089323;28;20086;-68
2022/03/30 02:09:12;;;;;;;15.35;12.38;;;;;;;13.59;43.97;97925.22;5088789;28;20076;-68
2022/03/30 02:11:40;;;;;;;19.10;12.95;;;;;;;13.83;44.05;97975.41;5072182;28;20048;-67
2022/03/30 02:14:11;;;;;;;13.68;11.52;;;;;;;13.59;44.90;97971.31;5071692;28;20033;-68
2022/03/30 02:16:41;;;;;;;17.90;12.30;;;;;;;13.35;45.76;97973.44;5071443;28;20050;-68
2022/03/30 02:19:12;;;;;;;16.63;12.65;;;;;;;13.27;45.83;97997.22;5088879;28;20060;-70
2022/03/30 02:21:43;;;;;;;15.88;12.73;;;;;;;12.71;45.42;97912.59;5088850;28;20040;-69
2022/03/30 02:24:12;;;;;;;16.10;11.93;;;;;;;11.61;45.09;97698.94;5071351;28;20041;-69
2022/03/30 02:26:41;;;;;;;16.67;12.02;;;;;;;13.28;45.65;97953.69;5054567;28;20045;-68
2022/03/30 02:29:12;;;;;;;15.02;12.13;;;;;;;13.31;45.25;97956.91;5088091;28;20048;-69
2022/03/30 02:31:42;;;;;;;15.07;12.25;;;;;;;13.21;45.01;97924.13;5089048;28;20040;-69
2022/03/30 02:34:12;;;;;;;16.30;12.55;;;;;;;13.44;44.84;97956.69;5088842;28;20363;-69
2022/03/30 02:36:45;;;;;;;15.70;12.20;;;;;;;13.50;44.94;97952.66;5088815;28;20048;-69
2022/03/30 02:39:18;;;;;;;22.08;12.80;;;;;;;13.50;44.87;97950.00;5088762;28;20040;-68
2022/03/30 02:41:51;;;;;;;16.75;13.27;;;;;;;13.10;44.89;97887.81;5088477;28;20351;-68
2022/03/30 02:44:23;;;;;;;18.42;14.10;;;;;;;13.45;44.78;97947.75;5088685;28;20041;-68
2022/03/30 02:46:55;;;;;;;18.00;13.65;;;;;;;13.17;45.10;97901.41;5088507;28;20036;-68
2022/03/30 02:49:28;;;;;;;15.48;12.55;;;;;;;13.47;44.83;97948.44;5071017;28;20047;-69
2022/03/30 02:52:02;;;;;;;16.17;13.75;;;;;;;13.15;45.24;97892.75;5088484;28;20045;-68
2022/03/30 02:54:34;;;;;;;16.42;12.50;;;;;;;12.94;45.33;97892.81;5054972;28;20051;-68
2022/03/30 02:57:07;;;;;;;15.63;13.05;;;;;;;13.27;45.52;97936.03;5088822;28;20239;-68
2022/03/30 02:59:39;;;;;;;14.63;12.20;;;;;;;13.33;45.26;97944.31;5071115;28;20040;-68
2022/03/30 03:02:12;;;;;;;17.35;12.50;;;;;;;13.44;45.02;97940.72;5088330;28;20353;-68
2022/03/30 03:04:44;;;;;;;19.90;12.38;;;;;;;13.45;45.18;97937.09;5087896;28;20044;-69
2022/03/30 03:07:18;;;;;;;16.40;13.02;;;;;;;13.37;45.84;97934.25;5088215;28;20047;-69
2022/03/30 03:09:50;;;;;;;18.83;13.37;;;;;;;13.29;45.39;97942.91;5070390;28;20208;-67
2022/03/30 03:12:22;;;;;;;19.83;14.13;;;;;;;13.34;45.35;97939.84;5086862;28;20375;-67
2022/03/30 03:14:54;;;;;;;18.88;14.02;;;;;;;13.33;45.23;97940.81;5087299;28;20044;-68
2022/03/30 03:17:26;;;;;;;17.45;13.77;;;;;;;13.27;45.60;97938.69;5087925;28;20087;-68
2022/03/30 03:19:58;;;;;;;19.52;13.55;;;;;;;13.24;45.67;97934.47;5087806;28;20040;-68
2022/03/30 03:22:32;;;;;;;18.27;13.45;;;;;;;13.23;45.60;97932.81;5087811;28;20223;-67
2022/03/30 03:25:05;;;;;;;21.80;15.60;;;;;;;13.24;45.97;97934.47;5087500;28;20065;-67
2022/03/30 03:27:37;;;;;;;21.67;15.25;;;;;;;13.29;45.63;97928.75;5087426;28;20064;-67
2022/03/30 03:30:11;;;;;;;15.07;12.23;;;;;;;13.24;45.91;97931.81;5087350;28;20107;-68
2022/03/30 03:32:43;;;;;;;17.48;12.80;;;;;;;13.22;45.58;97930.28;5087645;28;20044;-67
2022/03/30 03:35:16;;;;;;;18.98;13.55;;;;;;;13.20;45.90;97950.84;5087366;28;20040;-67
2022/03/30 03:37:49;;;;;;;15.27;12.45;;;;;;;12.36;46.21;97802.22;5070137;28;20228;-68
2022/03/30 03:40:22;;;;;;;18.35;13.35;;;;;;;13.19;45.87;97925.22;5087519;28;20048;-69
2022/03/30 03:42:54;;;;;;;14.30;12.73;;;;;;;12.92;46.03;97900.09;5087313;28;20045;-69
2022/03/30 03:45:27;;;;;;;17.00;12.60;;;;;;;13.10;46.22;97930.38;5087228;28;20058;-69
2022/03/30 03:48:00;;;;;;;18.23;13.48;;;;;;;13.04;46.37;97930.06;5087367;28;20338;-69
2022/03/30 03:50:32;;;;;;;17.65;13.45;;;;;;;13.05;46.33;97940.59;5069852;28;20090;-68
2022/03/30 03:53:06;;;;;;;15.82;12.60;;;;;;;13.06;46.63;97928.13;5086237;28;20208;-68
2022/03/30 03:55:38;;;;;;;16.77;12.20;;;;;;;12.79;46.44;97891.50;5087367;28;20040;-67
2022/03/30 03:58:12;;;;;;;17.52;13.00;;;;;;;13.06;46.54;97928.13;5069620;28;20732;-68
2022/03/30 04:00:45;;;;;;;21.42;13.60;;;;;;;12.50;46.57;97838.22;5070276;28;20040;-69
2022/03/30 04:03:17;;;;;;;18.27;14.13;;;;;;;13.01;46.51;97925.88;5086959;28;20056;-68
2022/03/30 04:05:49;;;;;;;19.58;13.32;;;;;;;13.01;46.79;97925.03;5069472;28;20200;-69
2022/03/30 04:08:23;;;;;;;18.90;14.82;;;;;;;12.94;47.12;97927.38;5086799;28;20047;-68
2022/03/30 04:10:55;;;;;;;22.88;17.00;;;;;;;12.97;47.13;97921.78;5087174;28;20048;-68
2022/03/30 04:13:28;;;;;;;15.82;14.13;;;;;;;12.63;46.88;97864.56;5069695;28;20050;-69
2022/03/30 04:16:00;;;;;;;19.50;14.02;;;;;;;11.68;47.30;97741.72;5086921;28;20040;-69
2022/03/30 04:18:32;;;;;;;17.00;14.30;;;;;;;12.89;47.26;97926.09;5069484;28;20036;-69
2022/03/30 04:21:04;;;;;;;16.75;13.35;;;;;;;12.76;47.86;97924.50;5086669;28;20041;-68
2022/03/30 04:23:38;;;;;;;18.80;14.55;;;;;;;12.71;47.83;97920.56;5086139;28;20314;-69
2022/03/30 04:26:11;;;;;;;17.23;13.77;;;;;;;12.78;47.49;97927.88;5086381;28;20044;-68
2022/03/30 04:28:43;;;;;;;19.65;13.98;;;;;;;12.79;47.23;97920.75;5086643;28;20045;-68
2022/03/30 04:31:15;;;;;;;28.55;15.60;;;;;;;12.82;47.29;97921.31;5086663;28;20044;-68
2022/03/30 04:33:47;;;;;;;19.70;13.30;;;;;;;12.88;47.25;97919.94;5068882;28;20041;-68
2022/03/30 04:36:21;;;;;;;15.18;12.20;;;;;;;12.89;47.34;97913.66;5086233;28;20111;-68
2022/03/30 04:38:54;;;;;;;29.23;16.30;;;;;;;11.23;47.66;97647.34;5086505;28;20102;-69
2022/03/30 04:41:27;;;;;;;18.50;14.25;;;;;;;12.56;47.38;97864.25;5068991;28;20239;-69
2022/03/30 04:43:59;;;;;;;22.92;15.57;;;;;;;12.75;47.72;97914.84;5068752;28;20207;-69
2022/03/30 04:46:32;;;;;;;18.75;13.85;;;;;;;11.93;47.78;97804.16;5086409;28;20040;-68
2022/03/30 04:49:05;;;;;;;19.83;15.93;;;;;;;12.70;48.19;97903.78;5086321;28;20102;-68
2022/03/30 04:51:38;;;;;;;20.55;14.45;;;;;;;12.71;47.84;97907.28;5086288;28;20044;-69
2022/03/30 04:54:09;;;;;;;19.95;14.05;;;;;;;12.61;49.27;97901.91;5086238;28;20043;-68
2022/03/30 04:56:38;;;;;;;19.58;13.48;;;;;;;12.63;48.01;97896.47;5068645;28;20086;-69
2022/03/30 04:59:08;;;;;;;18.02;14.00;;;;;;;12.57;48.52;97900.50;5085895;28;20041;-68
2022/03/30 05:01:38;;;;;;;21.85;13.25;;;;;;;12.28;48.68;97871.09;5068403;28;20044;-68
2022/03/30 05:04:09;;;;;;;17.83;12.57;;;;;;;11.62;48.46;97816.53;5085813;28;20063;-69
2022/03/30 05:06:38;;;;;;;18.65;13.98;;;;;;;12.04;48.77;97874.00;5085799;28;20041;-69
2022/03/30 05:09:11;;;;;;;23.50;14.95;;;;;;;12.33;48.85;97919.38;5086105;28;20350;-68
2022/03/30 05:11:39;;;;;;;18.00;12.95;;;;;;;12.25;48.44;97923.66;5085517;28;20040;-69
2022/03/30 05:14:09;;;;;;;21.10;13.90;;;;;;;10.90;48.62;97727.03;5085750;28;20043;-68
2022/03/30 05:16:40;;;;;;;20.85;13.45;;;;;;;12.37;48.84;97933.25;5086046;28;20044;-68
2022/03/30 05:19:10;;;;;;;22.10;13.45;;;;;;;12.42;48.29;97937.19;5068321;28;20098;-68
2022/03/30 05:21:40;;;;;;;18.75;13.30;;;;;;;11.76;47.98;97829.47;5068153;28;20051;-69
2022/03/30 05:24:11;;;;;;;19.17;13.68;;;;;;;11.84;48.53;97899.53;5085973;28;20041;-68
2022/03/30 05:26:40;;;;;;;15.07;12.20;;;;;;;12.35;48.40;97951.13;5051586;28;20068;-69
2022/03/30 05:29:10;;;;;;;17.50;13.52;;;;;;;12.02;48.86;97883.06;5085770;28;20086;-68
2022/03/30 05:31:40;;;;;;;18.58;13.95;;;;;;;12.37;48.21;97923.47;5085830;28;20094;-69
2022/03/30 05:34:11;;;;;;;17.55;12.95;;;;;;;10.96;48.54;97697.38;5084084;28;20043;-69
2022/03/30 05:36:41;;;;;;;16.10;12.27;;;;;;;12.47;48.48;97923.50;5068120;28;20036;-69
2022/03/30 05:39:12;;;;;;;16.65;14.02;;;;;;;12.24;48.42;97882.97;5085394;28;20292;-68
2022/03/30 05:41:41;;;;;;;17.17;13.38;;;;;;;11.91;47.96;97828.19;5051852;28;20044;-68
2022/03/30 05:44:11;;;;;;;19.65;13.77;;;;;;;12.59;48.17;97929.59;5068186;28;20036;-69
2022/03/30 05:46:41;;;;;;;16.40;12.73;;;;;;;12.63;48.06;97931.00;5068032;28;20029;-68
2022/03/30 05:49:11;;;;;;;16.13;12.68;;;;;;;12.68;47.95;97929.66;5085361;28;20108;-69
2022/03/30 05:51:42;;;;;;;28.50;13.80;;;;;;;12.66;48.05;97930.75;5068197;28;20263;-69
2022/03/30 05:54:13;;;;;;;18.52;13.55;;;;;;;12.43;48.14;97884.91;5085221;28;20041;-68
2022/03/30 05:59:34;;;;;;;18.75;13.02;;;;;;;12.59;47.87;97892.38;5085402;28;20044;-69
2022/03/30 06:02:09;;;;;;;19.17;14.70;;;;;;;12.87;47.48;97931.56;5085532;28;20051;-68
2022/03/30 06:04:45;;;;;;;18.90;13.77;;;;;;;13.00;47.65;97926.84;5064243;28;20312;-68
2022/03/30 06:07:17;;;;;;;18.45;14.40;;;;;;;13.11;47.29;97924.09;5065107;28;20041;-69
2022/03/30 06:09:52;;;;;;;19.60;13.90;;;;;;;13.04;47.13;97885.72;5065421;28;20068;-69
2022/03/30 06:12:24;;;;;;;18.38;14.23;;;;;;;13.43;47.15;97936.38;5065199;28;20189;-69
2022/03/30 06:14:57;;;;;;;19.45;14.00;;;;;;;13.75;46.00;97922.84;5065191;28;20041;-68
2022/03/30 06:17:29;;;;;;;16.83;13.10;;;;;;;13.93;45.60;97923.84;5065143;28;20236;-69
2022/03/30 06:20:03;;;;;;;20.10;14.65;;;;;;;13.99;45.74;97914.44;5065196;28;20143;-68
2022/03/30 06:22:36;;;;;;;25.77;15.55;;;;;;;13.10;45.87;97776.13;5065278;28;20045;-70
2022/03/30 06:25:11;;;;;;;24.55;16.00;;;;;;;13.69;46.10;97870.16;5064459;28;20041;-68
2022/03/30 06:27:43;;;;;;;18.13;13.85;;;;;;;13.75;45.69;97869.59;5065015;28;20083;-68
2022/03/30 06:30:16;;;;;;;22.88;16.15;;;;;;;13.78;45.85;97870.16;5065380;28;20083;-70
2022/03/30 06:32:49;;;;;;;20.73;13.48;;;;;;;14.22;45.31;97914.97;5064302;28;20098;-68
2022/03/30 06:35:23;;;;;;;18.93;14.60;;;;;;;14.30;45.44;97913.28;5064919;28;20037;-68
2022/03/30 06:37:55;;;;;;;19.00;16.23;;;;;;;14.06;45.22;97884.44;5065469;28;20433;-68
2022/03/30 06:40:28;;;;;;;20.55;15.38;;;;;;;14.22;45.40;97909.66;5064987;28;20041;-68
2022/03/30 06:43:01;;;;;;;24.93;15.17;;;;;;;14.35;45.20;97916.38;5047751;28;20045;-68
2022/03/30 06:45:34;;;;;;;23.90;16.42;;;;;;;14.02;45.47;97860.88;5065907;28;20041;-69
2022/03/30 06:48:07;;;;;;;21.73;15.65;;;;;;;14.43;45.35;97923.66;5051146;28;20051;-69
2022/03/30 06:50:39;;;;;;;19.58;15.65;;;;;;;14.48;44.94;97925.88;5068683;28;20068;-68
2022/03/30 06:53:12;;;;;;;21.40;15.38;;;;;;;14.36;45.29;97936.69;5067916;28;20052;-68
2022/03/30 06:55:45;;;;;;;19.42;14.55;;;;;;;14.31;45.61;97925.63;5068557;28;20083;-68
2022/03/30 06:58:18;;;;;;;20.13;15.88;;;;;;;14.00;45.55;97889.47;5068379;28;20045;-68
2022/03/30 07:00:50;;;;;;;20.02;15.30;;;;;;;14.27;45.80;97932.22;5068333;28;20105;-68
2022/03/30 07:03:26;;;;;;;19.40;15.35;;;;;;;13.64;46.00;97845.78;5076618;28;20060;-68
2022/03/30 07:05:58;;;;;;;21.95;16.52;;;;;;;13.12;45.96;97787.47;5087380;28;20093;-68
2022/03/30 07:11:22;;;;;;;17.63;15.20;;;;;;;14.10;45.74;97872.50;5070605;28;20292;-69
2022/03/30 07:13:57;;;;;;;20.90;15.07;;;;;;;14.55;45.42;97924.31;5088035;28;20060;-69
2022/03/30 07:16:29;;;;;;;19.73;14.80;;;;;;;14.31;45.01;97875.00;5087881;28;20040;-69
2022/03/30 07:19:01;;;;;;;17.83;14.30;;;;;;;13.46;45.21;97731.19;5088079;28;20173;-68
2022/03/30 07:21:33;;;;;;;24.23;16.30;;;;;;;14.64;45.25;97929.69;5087690;28;20111;-68
2022/03/30 07:24:07;;;;;;;23.92;15.98;;;;;;;14.62;45.02;97918.34;5070041;28;20044;-69
2022/03/30 07:26:41;;;;;;;20.35;16.10;;;;;;;14.44;45.41;97920.84;5087040;28;20083;-68
2022/03/30 07:29:14;;;;;;;23.75;15.60;;;;;;;14.23;45.73;97922.84;5087794;28;20037;-69
2022/03/30 07:31:43;;;;;;;23.48;15.68;;;;;;;13.82;45.77;97870.72;5087747;28;20041;-69
2022/03/30 07:34:14;;;;;;;19.45;14.18;;;;;;;14.27;45.19;97916.22;5087571;28;20040;-68
2022/03/30 07:36:44;;;;;;;21.85;15.02;;;;;;;14.31;44.74;97917.63;5087041;28;20041;-68
2022/03/30 07:39:14;;;;;;;22.40;15.98;;;;;;;13.73;44.95;97827.13;5087366;28;20051;-68
2022/03/30 07:41:46;;;;;;;23.33;14.68;;;;;;;14.05;44.70;97865.94;5087476;28;20038;-68
2022/03/30 07:44:14;;;;;;;18.13;13.73;;;;;;;14.36;44.41;97914.53;5087329;28;20041;-68
2022/03/30 07:46:46;;;;;;;23.83;18.00;;;;;;;14.21;44.37;97916.81;5087860;28;20040;-68
2022/03/30 07:49:14;;;;;;;21.83;15.40;;;;;;;13.72;44.78;97861.88;5086967;28;20086;-68
2022/03/30 07:51:45;;;;;;;20.63;14.13;;;;;;;14.05;44.55;97916.53;5053564;28;20053;-68
2022/03/30 07:54:15;;;;;;;20.55;14.02;;;;;;;13.97;44.43;97908.41;5088347;28;20036;-69
2022/03/30 07:56:48;;;;;;;19.58;13.50;;;;;;;13.87;44.78;97911.06;5069531;28;20103;-69
2022/03/30 07:59:20;;;;;;;17.42;13.85;;;;;;;13.86;44.50;97909.41;5087355;28;20056;-69
2022/03/30 08:01:51;;;;;;;22.35;14.48;;;;;;;13.98;44.23;97910.94;5086950;28;20041;-69
2022/03/30 08:04:22;;;;;;;18.92;13.77;;;;;;;12.54;44.04;97682.84;5049399;28;20053;-69
2022/03/30 08:06:50;;;;;;;20.75;14.48;;;;;;;12.68;43.97;97677.13;5066291;28;20099;-69
2022/03/30 08:09:20;;;;;;;19.77;14.65;;;;;;;13.95;44.00;97916.53;5066984;28;20109;-69
2022/03/30 08:11:53;;;;;;;19.65;14.02;;;;;;;13.90;44.10;97920.59;5067226;28;20049;-69
2022/03/30 08:14:21;;;;;;;22.58;15.98;;;;;;;13.95;44.15;97918.38;5066860;28;20056;-69
2022/03/30 08:16:51;;;;;;;19.70;15.57;;;;;;;12.86;44.25;97729.63;5066015;28;20037;-70
2022/03/30 08:19:21;;;;;;;21.90;14.40;;;;;;;13.90;44.38;97909.97;5066529;28;20049;-69
2022/03/30 08:24:46;;;;;;;20.58;14.20;;;;;;;13.99;44.32;97907.28;5066729;28;20087;-69
2022/03/30 08:27:21;;;;;;;22.98;15.32;;;;;;;13.26;44.05;97791.53;5066524;28;20087;-69
2022/03/30 08:29:54;;;;;;;21.27;14.73;;;;;;;14.00;44.22;97916.97;5066016;28;20036;-69
2022/03/30 08:32:28;;;;;;;20.63;15.98;;;;;;;12.87;44.01;97748.09;5066389;28;20069;-69
2022/03/30 08:35:03;;;;;;;19.65;14.45;;;;;;;13.06;43.85;97761.41;5066401;28;20064;-68
2022/03/30 08:37:35;;;;;;;20.83;15.02;;;;;;;13.85;44.16;97870.44;5065653;28;20040;-68
2022/03/30 08:40:08;;;;;;;24.30;17.25;;;;;;;14.20;44.03;97925.78;5066471;28;20065;-69
2022/03/30 08:42:42;;;;;;;21.13;14.75;;;;;;;13.65;44.03;97818.16;5065241;28;20086;-69
2022/03/30 08:45:15;;;;;;;21.52;15.48;;;;;;;14.21;44.06;97906.16;5066109;28;20040;-69
2022/03/30 08:47:47;;;;;;;20.17;16.10;;;;;;;13.62;43.82;97798.00;5065552;28;20041;-69
2022/03/30 08:50:21;;;;;;;24.73;16.10;;;;;;;14.27;43.79;97899.41;5066301;28;20063;-69
2022/03/30 08:52:55;;;;;;;20.98;13.98;;;;;;;14.29;43.54;97913.44;5066219;28;20099;-70
2022/03/30 08:55:28;;;;;;;23.75;14.27;;;;;;;14.09;43.92;97852.19;5066296;28;20048;-69
2022/03/30 08:58:02;;;;;;;20.15;15.30;;;;;;;14.30;44.24;97889.31;5065859;28;20045;-69
2022/03/30 09:00:35;;;;;;;20.50;14.55;;;;;;;13.94;44.11;97844.78;5065470;28;20087;-68
2022/03/30 09:03:08;;;;;;;19.65;15.13;;;;;;;14.07;44.32;97887.94;5064704;28;20060;-69
2022/03/30 09:05:41;;;;;;;23.52;16.08;;;;;;;13.68;44.33;97844.50;5064813;28;20101;-69
2022/03/30 09:08:15;;;;;;;26.52;16.98;;;;;;;12.43;44.30;97659.91;5065829;28;20296;-69
2022/03/30 09:10:49;;;;;;;22.42;15.85;;;;;;;13.97;44.08;97887.94;5064331;28;20111;-69
2022/03/30 09:13:24;;;;;;;19.67;14.27;;;;;;;14.05;43.98;97893.41;5065134;28;20094;-69
2022/03/30 09:15:58;;;;;;;17.92;13.93;;;;;;;10.95;43.96;97393.53;5065932;28;20041;-68
2022/03/30 09:18:31;;;;;;;17.27;12.48;;;;;;;13.91;43.25;97821.94;5066098;28;20083;-68
2022/03/30 09:21:03;;;;;;;19.63;13.75;;;;;;;14.24;43.00;97868.56;5065518;28;20041;-68
2022/03/30 09:23:35;;;;;;;20.65;15.88;;;;;;;14.22;43.20;97864.34;5066050;28;20049;-68
2022/03/30 09:26:10;;;;;;;26.30;16.50;;;;;;;14.20;43.26;97848.50;5066009;28;20087;-68
2022/03/30 09:28:44;;;;;;;18.25;14.45;;;;;;;14.08;43.08;97820.34;5065732;28;20044;-68
2022/03/30 09:31:17;;;;;;;19.25;14.95;;;;;;;13.81;42.89;97770.50;5065741;28;20041;-68
2022/03/30 09:33:49;;;;;;;19.67;14.55;;;;;;;14.15;43.00;97805.47;5065340;28;20045;-68
2022/03/30 09:36:32;;;;;;;26.45;14.65;;;;;;;14.52;42.85;97848.13;5064438;28;20108;-69
2022/03/30 09:39:06;;;;;;;19.20;14.02;;;;;;;14.35;42.74;97787.59;5064593;28;20047;-69
2022/03/30 09:41:49;;;;;;;19.05;13.73;;;;;;;14.68;42.59;97837.75;5065663;28;20041;-68
2022/03/30 09:44:22;;;;;;;19.75;15.80;;;;;;;14.74;42.45;97831.84;5064294;28;20040;-69
2022/03/30 09:46:56;;;;;;;24.02;15.55;;;;;;;14.54;42.76;97835.50;5065434;28;20067;-68
2022/03/30 09:49:34;;;;;;;22.38;14.55;;;;;;;14.62;42.65;97818.84;5047778;28;20044;-68
2022/03/30 09:52:15;;;;;;;16.83;13.85;;;;;;;14.64;42.65;97822.19;5065207;28;20063;-68
2022/03/30 09:54:50;;;;;;;20.80;14.77;;;;;;;14.64;42.67;97808.88;5064441;28;20280;-69
2022/03/30 09:57:24;;;;;;;20.50;13.07;;;;;;;14.42;42.74;97760.22;5065388;28;20045;-69
2022/03/30 09:59:59;;;;;;;;;;;;;;;14.81;42.79;97802.75;5064762;28;20182;-69
2022/03/30 10:02:34;;;;;;;20.30;13.52;;;;;;;14.86;42.54;97805.81;5065096;28;20115;-69
2022/03/30 10:05:07;;;;;;;;;;;;;;;14.79;42.49;97799.38;5085782;28;20135;-68
2022/03/30 10:07:40;;;;;;;14.07;11.48;;;;;;;14.88;42.66;97787.81;5067723;28;19999;-68
2022/03/30 10:10:16;;;;;;;17.70;12.40;;;;;;;14.27;42.20;97692.41;5084866;28;20319;-68
2022/03/30 10:12:49;;;;;;;16.52;12.75;;;;;;;14.95;42.32;97794.25;5067876;28;20041;-68
2022/03/30 10:15:24;;;;;;;20.55;15.07;;;;;;;14.94;42.31;97779.22;5067418;28;20040;-69
2022/03/30 10:17:57;;;;;;;16.88;13.45;;;;;;;13.79;42.17;97608.22;5067511;28;20120;-68
2022/03/30 10:20:31;;;;;;;21.55;14.20;;;;;;;14.70;42.36;97781.63;5067851;28;20060;-68
2022/03/30 10:23:20;;;;;;;18.88;13.32;;;;;;;14.70;42.25;97766.44;5071465;28;20036;-68
2022/03/30 10:26:07;;;;;;;16.20;12.88;;;;;;;13.65;41.91;97591.91;5088118;28;20142;-68
2022/03/30 10:28:58;;;;;;;20.02;13.18;;;;;;;14.73;41.78;97757.31;5088661;28;20059;-69
2022/03/30 10:31:32;;;;;;;17.98;13.10;;;;;;;14.50;42.02;97705.31;5089002;28;20292;-69
2022/03/30 10:34:25;;;;;;;19.38;15.15;;;;;;;13.77;41.74;97618.19;5071445;28;20048;-69
2022/03/30 10:37:07;;;;;;;16.02;12.65;;;;;;;14.77;41.92;97752.53;5070808;28;20111;-69
2022/03/30 10:40:08;;;;;;;16.85;13.00;;;;;;;14.73;41.94;97743.97;5071283;28;20036;-69
2022/03/30 10:43:02;;;;;;;22.58;12.32;;;;;;;14.79;41.88;97737.22;5045494;28;20060;-69
2022/03/30 10:45:56;;;;;;;19.48;13.55;;;;;;;14.90;41.72;97723.66;5088630;28;20045;-69
2022/03/30 10:48:38;;;;;;;17.85;13.75;;;;;;;14.85;41.07;97732.13;5088209;28;20071;-69
2022/03/30 10:51:19;;;;;;;16.27;12.35;;;;;;;14.61;41.15;97678.53;5088717;28;20043;-69
2022/03/30 10:53:52;;;;;;;16.38;12.40;;;;;;;14.93;41.59;97723.34;5088554;28;20110;-69
2022/03/30 10:56:34;;;;;;;19.90;13.13;;;;;;;14.94;41.44;97711.69;5088517;28;20163;-68
2022/03/30 10:59:14;;;;;;;20.35;13.32;;;;;;;14.50;41.22;97655.53;5088525;28;20199;-69
2022/03/30 11:01:49;;;;;;;22.52;15.00;;;;;;;14.79;41.53;97727.38;5088462;28;20048;-68
2022/03/30 11:04:25;;;;;;;16.50;12.98;;;;;;;14.75;41.79;97697.50;5087845;28;20071;-69
2022/03/30 11:07:30;;;;;;;18.23;13.52;;;;;;;14.83;41.59;97703.91;5087864;28;20082;-69
2022/03/30 11:10:27;;;;;;;22.40;13.48;;;;;;;14.91;40.81;97691.50;5007110;28;20310;-68
2022/03/30 11:13:05;;;;;;;25.17;13.75;;;;;;;14.65;41.62;97667.41;4990762;28;20250;-68
2022/03/30 11:16:11;;;;;;;18.33;12.40;;;;;;;14.99;41.26;97694.25;5068346;28;20056;-69
2022/03/30 11:18:57;;;;;;;21.38;13.85;;;;;;;14.93;41.02;97705.53;5088109;28;20037;-69
2022/03/30 11:21:31;;;;;;;16.17;12.60;;;;;;;15.02;41.65;97677.94;5070217;28;20090;-68
2022/03/30 11:24:13;;;;;;;20.35;11.48;;;;;;;15.19;41.49;97670.06;5087749;28;20040;-69
2022/03/30 11:27:19;;;;;;;23.30;13.10;;;;;;;15.31;41.67;97679.50;5087603;28;20049;-68
2022/03/30 11:30:16;;;;;;;18.83;13.18;;;;;;;15.33;41.29;97657.00;5069905;28;20247;-69
2022/03/30 11:32:58;;;;;;;19.95;14.43;;;;;;;15.46;41.66;97650.44;5068899;28;20232;-69
2022/03/30 11:35:37;;;;;;;18.98;12.73;;;;;;;15.45;41.46;97656.75;5087961;28;20040;-69
2022/03/30 11:38:16;;;;;;;23.17;15.00;;;;;;;15.14;41.87;97617.16;5087615;28;20048;-69
2022/03/30 11:40:50;;;;;;;18.85;14.10;;;;;;;15.57;41.73;97644.81;5087551;28;20040;-68
2022/03/30 11:43:23;;;;;;;17.40;14.27;;;;;;;15.43;41.09;97582.16;5086660;28;20062;-69
2022/03/30 11:45:56;;;;;;;15.90;13.27;;;;;;;15.91;40.85;97628.84;5087399;28;20086;-69
2022/03/30 11:48:36;;;;;;;19.63;14.90;;;;;;;15.86;41.13;97629.34;5053245;28;20204;-68
2022/03/30 11:51:08;;;;;;;19.67;15.90;;;;;;;15.46;41.59;97581.00;5087453;28;20044;-68
2022/03/30 11:53:42;;;;;;;17.92;13.40;;;;;;;15.60;41.59;97615.13;5087364;28;20052;-69
2022/03/30 11:56:14;;;;;;;24.60;13.95;;;;;;;15.70;41.90;97605.22;5070422;28;20056;-68
2022/03/30 11:58:56;;;;;;;18.08;14.25;;;;;;;15.61;42.00;97616.81;5069872;28;20103;-68